sensor_id;sensor_type;location;lat;lon;timestamp;P1;durP1;ratioP1;P2;durP2;ratioP2
19762;SDS011;10040;42.614;23.164;2022-07-15T00:00:07;0.55;;;0.50;;
19762;SDS011;10040;42.614;23.164;2022-07-15T00:02:36;1.70;;;0.70;;
19762;SDS011;10040;42.614;23.164;2022-07-15T00:05:04;0.93;;;0.47;;
19762;SDS011;10040;42.614;23.164;2022-07-15T00:07:33;0.80;;;0.60;;
19762;SDS011;10040;42.614;23.164;2022-07-15T00:10:01;2.80;;;0.60;;
19762;SDS011;10040;42.614;23.164;2022-07-15T00:12:41;0.73;;;0.63;;
19762;SDS011;10040;42.614;23.164;2022-07-15T00:15:10;1.15;;;0.70;;
19762;SDS011;10040;42.614;23.164;2022-07-15T00:17:38;0.40;;;0.40;;
19762;SDS011;10040;42.614;23.164;2022-07-15T00:20:06;0.52;;;0.50;;
19762;SDS011;10040;42.614;23.164;2022-07-15T00:22:35;0.50;;;0.50;;
19762;SDS011;10040;42.614;23.164;2022-07-15T00:25:03;1.35;;;0.75;;
19762;SDS011;10040;42.614;23.164;2022-07-15T00:27:31;1.42;;;0.82;;
19762;SDS011;10040;42.614;23.164;2022-07-15T00:30:00;0.60;;;0.60;;
19762;SDS011;10040;42.614;23.164;2022-07-15T00:32:28;1.02;;;0.90;;
19762;SDS011;10040;42.614;23.164;2022-07-15T00:34:55;0.70;;;0.50;;
19762;SDS011;10040;42.614;23.164;2022-07-15T00:37:23;0.57;;;0.55;;
19762;SDS011;10040;42.614;23.164;2022-07-15T00:39:50;1.08;;;0.90;;
19762;SDS011;10040;42.614;23.164;2022-07-15T00:42:17;0.70;;;0.70;;
19762;SDS011;10040;42.614;23.164;2022-07-15T00:45:00;0.95;;;0.90;;
19762;SDS011;10040;42.614;23.164;2022-07-15T00:47:27;0.95;;;0.70;;
19762;SDS011;10040;42.614;23.164;2022-07-15T00:49:55;0.60;;;0.60;;
19762;SDS011;10040;42.614;23.164;2022-07-15T00:52:23;1.27;;;0.85;;
19762;SDS011;10040;42.614;23.164;2022-07-15T00:54:53;0.75;;;0.75;;
19762;SDS011;10040;42.614;23.164;2022-07-15T00:57:25;0.70;;;0.70;;
19762;SDS011;10040;42.614;23.164;2022-07-15T00:59:54;3.58;;;0.70;;
19762;SDS011;10040;42.614;23.164;2022-07-15T01:02:23;0.68;;;0.68;;
19762;SDS011;10040;42.614;23.164;2022-07-15T01:04:50;0.60;;;0.57;;
19762;SDS011;10040;42.614;23.164;2022-07-15T01:07:23;0.57;;;0.57;;
19762;SDS011;10040;42.614;23.164;2022-07-15T01:09:50;3.25;;;0.60;;
19762;SDS011;10040;42.614;23.164;2022-07-15T01:12:18;1.40;;;0.90;;
19762;SDS011;10040;42.614;23.164;2022-07-15T01:14:45;0.80;;;0.80;;
19762;SDS011;10040;42.614;23.164;2022-07-15T01:17:15;0.80;;;0.60;;
19762;SDS011;10040;42.614;23.164;2022-07-15T01:19:44;0.82;;;0.63;;
19762;SDS011;10040;42.614;23.164;2022-07-15T01:22:13;0.75;;;0.60;;
19762;SDS011;10040;42.614;23.164;2022-07-15T01:24:42;0.73;;;0.60;;
19762;SDS011;10040;42.614;23.164;2022-07-15T01:27:16;0.57;;;0.57;;
19762;SDS011;10040;42.614;23.164;2022-07-15T01:29:45;0.70;;;0.70;;
19762;SDS011;10040;42.614;23.164;2022-07-15T01:32:14;0.93;;;0.80;;
19762;SDS011;10040;42.614;23.164;2022-07-15T01:34:41;7.00;;;1.60;;
19762;SDS011;10040;42.614;23.164;2022-07-15T01:37:09;0.82;;;0.73;;
19762;SDS011;10040;42.614;23.164;2022-07-15T01:39:42;0.82;;;0.70;;
19762;SDS011;10040;42.614;23.164;2022-07-15T01:42:10;1.13;;;0.80;;
19762;SDS011;10040;42.614;23.164;2022-07-15T01:44:38;0.80;;;0.80;;
19762;SDS011;10040;42.614;23.164;2022-07-15T01:47:05;2.83;;;1.10;;
19762;SDS011;10040;42.614;23.164;2022-07-15T01:49:35;1.67;;;0.80;;
19762;SDS011;10040;42.614;23.164;2022-07-15T01:52:22;1.10;;;0.80;;
19762;SDS011;10040;42.614;23.164;2022-07-15T01:54:52;1.58;;;0.80;;
19762;SDS011;10040;42.614;23.164;2022-07-15T01:57:19;2.42;;;0.80;;
19762;SDS011;10040;42.614;23.164;2022-07-15T01:59:50;0.60;;;0.60;;
19762;SDS011;10040;42.614;23.164;2022-07-15T02:02:27;3.25;;;1.30;;
19762;SDS011;10040;42.614;23.164;2022-07-15T02:04:54;1999.90;;;999.90;;
19762;SDS011;10040;42.614;23.164;2022-07-15T02:07:22;1999.90;;;999.90;;
19762;SDS011;10040;42.614;23.164;2022-07-15T02:09:51;11.45;;;10.57;;
19762;SDS011;10040;42.614;23.164;2022-07-15T02:12:19;1506.97;;;756.42;;
19762;SDS011;10040;42.614;23.164;2022-07-15T02:14:51;34.35;;;32.60;;
19762;SDS011;10040;42.614;23.164;2022-07-15T02:17:19;547.63;;;294.05;;
19762;SDS011;10040;42.614;23.164;2022-07-15T02:19:48;1999.90;;;999.90;;
19762;SDS011;10040;42.614;23.164;2022-07-15T02:22:16;176.68;;;157.73;;
19762;SDS011;10040;42.614;23.164;2022-07-15T02:24:43;12.27;;;11.48;;
19762;SDS011;10040;42.614;23.164;2022-07-15T02:27:19;16.75;;;15.80;;
19762;SDS011;10040;42.614;23.164;2022-07-15T02:29:47;67.60;;;64.00;;
19762;SDS011;10040;42.614;23.164;2022-07-15T02:32:16;115.60;;;109.45;;
19762;SDS011;10040;42.614;23.164;2022-07-15T02:34:44;144.57;;;137.00;;
19762;SDS011;10040;42.614;23.164;2022-07-15T02:37:12;131.48;;;124.38;;
19762;SDS011;10040;42.614;23.164;2022-07-15T02:39:40;1999.90;;;999.90;;
19762;SDS011;10040;42.614;23.164;2022-07-15T02:42:07;76.75;;;72.63;;
19762;SDS011;10040;42.614;23.164;2022-07-15T02:44:39;85.30;;;80.85;;
19762;SDS011;10040;42.614;23.164;2022-07-15T02:47:07;549.45;;;296.60;;
19762;SDS011;10040;42.614;23.164;2022-07-15T02:49:34;1999.90;;;999.90;;
19762;SDS011;10040;42.614;23.164;2022-07-15T02:52:02;1999.90;;;999.90;;
19762;SDS011;10040;42.614;23.164;2022-07-15T02:54:33;1999.90;;;999.90;;
19762;SDS011;10040;42.614;23.164;2022-07-15T02:57:01;1999.90;;;999.90;;
19762;SDS011;10040;42.614;23.164;2022-07-15T02:59:28;1999.90;;;999.90;;
19762;SDS011;10040;42.614;23.164;2022-07-15T03:01:59;53.50;;;50.63;;
19762;SDS011;10040;42.614;23.164;2022-07-15T03:04:28;1999.90;;;999.90;;
19762;SDS011;10040;42.614;23.164;2022-07-15T03:06:56;28.63;;;26.63;;
19762;SDS011;10040;42.614;23.164;2022-07-15T03:09:23;59.08;;;55.55;;
19762;SDS011;10040;42.614;23.164;2022-07-15T03:11:51;7.03;;;6.57;;
19762;SDS011;10040;42.614;23.164;2022-07-15T03:14:18;7.25;;;6.82;;
19762;SDS011;10040;42.614;23.164;2022-07-15T03:16:46;31.60;;;27.88;;
19762;SDS011;10040;42.614;23.164;2022-07-15T03:19:14;5.35;;;5.05;;
19762;SDS011;10040;42.614;23.164;2022-07-15T03:21:46;5.00;;;3.30;;
19762;SDS011;10040;42.614;23.164;2022-07-15T03:24:14;3.08;;;2.88;;
19762;SDS011;10040;42.614;23.164;2022-07-15T03:26:42;37.42;;;34.47;;
19762;SDS011;10040;42.614;23.164;2022-07-15T03:29:10;1999.90;;;999.90;;
19762;SDS011;10040;42.614;23.164;2022-07-15T03:31:40;1999.90;;;999.90;;
19762;SDS011;10040;42.614;23.164;2022-07-15T03:34:07;1999.90;;;999.90;;
19762;SDS011;10040;42.614;23.164;2022-07-15T03:36:37;1999.90;;;999.90;;
19762;SDS011;10040;42.614;23.164;2022-07-15T03:39:06;1999.90;;;999.90;;
19762;SDS011;10040;42.614;23.164;2022-07-15T03:41:34;1999.90;;;999.90;;
19762;SDS011;10040;42.614;23.164;2022-07-15T03:44:02;1999.90;;;999.90;;
19762;SDS011;10040;42.614;23.164;2022-07-15T03:46:30;1999.90;;;999.90;;
19762;SDS011;10040;42.614;23.164;2022-07-15T03:49:01;1999.90;;;999.90;;
19762;SDS011;10040;42.614;23.164;2022-07-15T03:51:31;1999.90;;;999.90;;
19762;SDS011;10040;42.614;23.164;2022-07-15T03:54:02;1999.90;;;999.90;;
19762;SDS011;10040;42.614;23.164;2022-07-15T03:56:30;1999.90;;;999.90;;
19762;SDS011;10040;42.614;23.164;2022-07-15T03:58:57;1999.90;;;999.90;;
19762;SDS011;10040;42.614;23.164;2022-07-15T04:01:25;1999.90;;;999.90;;
19762;SDS011;10040;42.614;23.164;2022-07-15T04:03:55;1999.90;;;999.90;;
19762;SDS011;10040;42.614;23.164;2022-07-15T04:06:23;1999.90;;;999.90;;
19762;SDS011;10040;42.614;23.164;2022-07-15T04:08:51;1999.90;;;999.90;;
19762;SDS011;10040;42.614;23.164;2022-07-15T04:11:20;1999.90;;;999.90;;
19762;SDS011;10040;42.614;23.164;2022-07-15T04:13:48;1999.90;;;999.90;;
19762;SDS011;10040;42.614;23.164;2022-07-15T04:16:18;1999.90;;;999.90;;
19762;SDS011;10040;42.614;23.164;2022-07-15T04:18:48;1999.90;;;999.90;;
19762;SDS011;10040;42.614;23.164;2022-07-15T04:21:17;1999.90;;;999.90;;
19762;SDS011;10040;42.614;23.164;2022-07-15T04:23:45;1999.90;;;999.90;;
19762;SDS011;10040;42.614;23.164;2022-07-15T04:26:12;1999.90;;;999.90;;
19762;SDS011;10040;42.614;23.164;2022-07-15T04:28:42;1999.90;;;999.90;;
19762;SDS011;10040;42.614;23.164;2022-07-15T04:31:10;1999.90;;;999.90;;
19762;SDS011;10040;42.614;23.164;2022-07-15T04:33:47;1999.90;;;999.90;;
19762;SDS011;10040;42.614;23.164;2022-07-15T04:36:15;1999.90;;;999.90;;
19762;SDS011;10040;42.614;23.164;2022-07-15T04:38:43;1999.90;;;999.90;;
19762;SDS011;10040;42.614;23.164;2022-07-15T04:41:11;1999.90;;;999.90;;
19762;SDS011;10040;42.614;23.164;2022-07-15T04:43:39;1999.90;;;999.90;;
19762;SDS011;10040;42.614;23.164;2022-07-15T04:46:11;1999.90;;;999.90;;
19762;SDS011;10040;42.614;23.164;2022-07-15T04:48:39;1999.90;;;999.90;;
19762;SDS011;10040;42.614;23.164;2022-07-15T04:51:23;1999.90;;;999.90;;
19762;SDS011;10040;42.614;23.164;2022-07-15T04:53:51;1999.90;;;999.90;;
19762;SDS011;10040;42.614;23.164;2022-07-15T04:56:18;1999.90;;;999.90;;
19762;SDS011;10040;42.614;23.164;2022-07-15T04:58:48;1999.90;;;999.90;;
19762;SDS011;10040;42.614;23.164;2022-07-15T05:01:17;1999.90;;;999.90;;
19762;SDS011;10040;42.614;23.164;2022-07-15T05:03:44;1999.90;;;999.90;;
19762;SDS011;10040;42.614;23.164;2022-07-15T05:06:13;1999.90;;;999.90;;
19762;SDS011;10040;42.614;23.164;2022-07-15T05:08:40;1999.90;;;999.90;;
19762;SDS011;10040;42.614;23.164;2022-07-15T05:11:08;1999.90;;;999.90;;
19762;SDS011;10040;42.614;23.164;2022-07-15T05:13:37;1999.90;;;999.90;;
19762;SDS011;10040;42.614;23.164;2022-07-15T05:16:06;1999.90;;;999.90;;
19762;SDS011;10040;42.614;23.164;2022-07-15T05:18:37;1999.90;;;999.90;;
19762;SDS011;10040;42.614;23.164;2022-07-15T05:21:06;1999.90;;;999.90;;
19762;SDS011;10040;42.614;23.164;2022-07-15T05:23:39;1999.90;;;999.90;;
19762;SDS011;10040;42.614;23.164;2022-07-15T05:26:07;1999.90;;;999.90;;
19762;SDS011;10040;42.614;23.164;2022-07-15T05:28:39;1999.90;;;999.90;;
19762;SDS011;10040;42.614;23.164;2022-07-15T05:31:07;1999.90;;;999.90;;
19762;SDS011;10040;42.614;23.164;2022-07-15T05:33:34;1999.90;;;999.90;;
19762;SDS011;10040;42.614;23.164;2022-07-15T05:36:10;1999.90;;;999.90;;
19762;SDS011;10040;42.614;23.164;2022-07-15T05:38:42;1999.90;;;999.90;;
19762;SDS011;10040;42.614;23.164;2022-07-15T05:41:10;1999.90;;;999.90;;
19762;SDS011;10040;42.614;23.164;2022-07-15T05:43:38;1999.90;;;999.90;;
19762;SDS011;10040;42.614;23.164;2022-07-15T05:46:05;1999.90;;;999.90;;
19762;SDS011;10040;42.614;23.164;2022-07-15T05:48:44;1999.90;;;999.90;;
19762;SDS011;10040;42.614;23.164;2022-07-15T05:51:13;1999.90;;;999.90;;
19762;SDS011;10040;42.614;23.164;2022-07-15T05:53:42;1999.90;;;999.90;;
19762;SDS011;10040;42.614;23.164;2022-07-15T05:56:09;1999.90;;;999.90;;
19762;SDS011;10040;42.614;23.164;2022-07-15T05:58:37;1999.90;;;999.90;;
19762;SDS011;10040;42.614;23.164;2022-07-15T06:01:05;1999.90;;;999.90;;
19762;SDS011;10040;42.614;23.164;2022-07-15T06:03:38;1999.90;;;999.90;;
19762;SDS011;10040;42.614;23.164;2022-07-15T06:06:07;1999.90;;;999.90;;
19762;SDS011;10040;42.614;23.164;2022-07-15T06:08:36;1999.90;;;999.90;;
19762;SDS011;10040;42.614;23.164;2022-07-15T06:11:04;1999.90;;;999.90;;
19762;SDS011;10040;42.614;23.164;2022-07-15T06:13:35;1999.90;;;999.90;;
19762;SDS011;10040;42.614;23.164;2022-07-15T06:16:04;1999.90;;;999.90;;
19762;SDS011;10040;42.614;23.164;2022-07-15T06:18:32;1999.90;;;999.90;;
19762;SDS011;10040;42.614;23.164;2022-07-15T06:21:01;1999.90;;;999.90;;
19762;SDS011;10040;42.614;23.164;2022-07-15T06:23:30;1999.90;;;999.90;;
19762;SDS011;10040;42.614;23.164;2022-07-15T06:25:57;1999.90;;;999.90;;
19762;SDS011;10040;42.614;23.164;2022-07-15T06:28:25;1999.90;;;999.90;;
19762;SDS011;10040;42.614;23.164;2022-07-15T06:30:52;1999.90;;;999.90;;
19762;SDS011;10040;42.614;23.164;2022-07-15T06:33:20;1999.90;;;999.90;;
19762;SDS011;10040;42.614;23.164;2022-07-15T06:35:50;1999.90;;;999.90;;
19762;SDS011;10040;42.614;23.164;2022-07-15T06:38:17;1999.90;;;999.90;;
19762;SDS011;10040;42.614;23.164;2022-07-15T06:40:46;1999.90;;;999.90;;
19762;SDS011;10040;42.614;23.164;2022-07-15T06:43:15;1999.90;;;999.90;;
19762;SDS011;10040;42.614;23.164;2022-07-15T06:46:17;1999.90;;;999.90;;
19762;SDS011;10040;42.614;23.164;2022-07-15T06:48:45;1999.90;;;999.90;;
19762;SDS011;10040;42.614;23.164;2022-07-15T06:51:12;1999.90;;;999.90;;
19762;SDS011;10040;42.614;23.164;2022-07-15T06:53:40;1999.90;;;999.90;;
19762;SDS011;10040;42.614;23.164;2022-07-15T06:56:09;1999.90;;;999.90;;
19762;SDS011;10040;42.614;23.164;2022-07-15T06:58:39;1999.90;;;999.90;;
19762;SDS011;10040;42.614;23.164;2022-07-15T07:01:06;1999.90;;;999.90;;
19762;SDS011;10040;42.614;23.164;2022-07-15T07:03:34;1999.90;;;999.90;;
19762;SDS011;10040;42.614;23.164;2022-07-15T07:06:02;1999.90;;;999.90;;
19762;SDS011;10040;42.614;23.164;2022-07-15T07:08:31;1999.90;;;999.90;;
19762;SDS011;10040;42.614;23.164;2022-07-15T07:10:59;1999.90;;;999.90;;
19762;SDS011;10040;42.614;23.164;2022-07-15T07:13:28;1999.90;;;999.90;;
19762;SDS011;10040;42.614;23.164;2022-07-15T07:15:55;1999.90;;;999.90;;
19762;SDS011;10040;42.614;23.164;2022-07-15T07:18:23;1999.90;;;999.90;;
19762;SDS011;10040;42.614;23.164;2022-07-15T07:20:50;1999.90;;;999.90;;
19762;SDS011;10040;42.614;23.164;2022-07-15T07:23:18;1999.90;;;999.90;;
19762;SDS011;10040;42.614;23.164;2022-07-15T07:25:46;1999.90;;;999.90;;
19762;SDS011;10040;42.614;23.164;2022-07-15T07:28:13;1999.90;;;999.90;;
19762;SDS011;10040;42.614;23.164;2022-07-15T07:30:42;1999.90;;;999.90;;
19762;SDS011;10040;42.614;23.164;2022-07-15T07:33:11;1999.90;;;999.90;;
19762;SDS011;10040;42.614;23.164;2022-07-15T07:35:38;1999.90;;;999.90;;
19762;SDS011;10040;42.614;23.164;2022-07-15T07:38:06;1999.90;;;999.90;;
19762;SDS011;10040;42.614;23.164;2022-07-15T07:40:33;1999.90;;;999.90;;
19762;SDS011;10040;42.614;23.164;2022-07-15T07:43:01;1999.90;;;999.90;;
19762;SDS011;10040;42.614;23.164;2022-07-15T07:45:28;1999.90;;;999.90;;
19762;SDS011;10040;42.614;23.164;2022-07-15T07:47:57;1999.90;;;999.90;;
19762;SDS011;10040;42.614;23.164;2022-07-15T07:50:25;1999.90;;;999.90;;
19762;SDS011;10040;42.614;23.164;2022-07-15T07:52:52;1999.90;;;999.90;;
19762;SDS011;10040;42.614;23.164;2022-07-15T07:55:20;1999.90;;;999.90;;
19762;SDS011;10040;42.614;23.164;2022-07-15T07:57:48;1999.90;;;999.90;;
19762;SDS011;10040;42.614;23.164;2022-07-15T08:00:16;1999.90;;;999.90;;
19762;SDS011;10040;42.614;23.164;2022-07-15T08:02:45;1999.90;;;999.90;;
19762;SDS011;10040;42.614;23.164;2022-07-15T08:05:15;1999.90;;;999.90;;
19762;SDS011;10040;42.614;23.164;2022-07-15T08:07:43;1999.90;;;999.90;;
19762;SDS011;10040;42.614;23.164;2022-07-15T08:10:10;1999.90;;;999.90;;
19762;SDS011;10040;42.614;23.164;2022-07-15T08:12:38;1999.90;;;999.90;;
19762;SDS011;10040;42.614;23.164;2022-07-15T08:15:07;1999.90;;;999.90;;
19762;SDS011;10040;42.614;23.164;2022-07-15T08:17:36;1999.90;;;999.90;;
19762;SDS011;10040;42.614;23.164;2022-07-15T08:20:04;227.32;;;215.35;;
19762;SDS011;10040;42.614;23.164;2022-07-15T08:22:35;1999.90;;;999.90;;
19762;SDS011;10040;42.614;23.164;2022-07-15T08:25:04;1999.90;;;999.90;;
19762;SDS011;10040;42.614;23.164;2022-07-15T08:27:32;1999.90;;;999.90;;
19762;SDS011;10040;42.614;23.164;2022-07-15T08:29:59;1999.90;;;999.90;;
19762;SDS011;10040;42.614;23.164;2022-07-15T08:32:27;1523.38;;;753.97;;
19762;SDS011;10040;42.614;23.164;2022-07-15T08:34:54;455.13;;;295.15;;
19762;SDS011;10040;42.614;23.164;2022-07-15T08:37:24;1999.90;;;999.90;;
19762;SDS011;10040;42.614;23.164;2022-07-15T08:39:53;1999.90;;;999.90;;
19762;SDS011;10040;42.614;23.164;2022-07-15T08:42:20;1999.90;;;999.90;;
19762;SDS011;10040;42.614;23.164;2022-07-15T08:44:48;1999.90;;;999.90;;
19762;SDS011;10040;42.614;23.164;2022-07-15T08:47:15;1999.90;;;999.90;;
19762;SDS011;10040;42.614;23.164;2022-07-15T08:49:44;1999.90;;;999.90;;
19762;SDS011;10040;42.614;23.164;2022-07-15T08:52:14;157.07;;;141.68;;
19762;SDS011;10040;42.614;23.164;2022-07-15T08:54:44;46.05;;;40.03;;
19762;SDS011;10040;42.614;23.164;2022-07-15T08:57:13;1999.90;;;999.90;;
19762;SDS011;10040;42.614;23.164;2022-07-15T08:59:41;1999.90;;;999.90;;
19762;SDS011;10040;42.614;23.164;2022-07-15T09:02:11;1999.90;;;999.90;;
19762;SDS011;10040;42.614;23.164;2022-07-15T09:07:49;1999.90;;;999.90;;
19762;SDS011;10040;42.614;23.164;2022-07-15T09:10:19;1999.90;;;999.90;;
19762;SDS011;10040;42.614;23.164;2022-07-15T09:12:50;1999.90;;;999.90;;
19762;SDS011;10040;42.614;23.164;2022-07-15T09:15:31;1999.90;;;999.90;;
19762;SDS011;10040;42.614;23.164;2022-07-15T09:18:07;78.82;;;57.00;;
19762;SDS011;10040;42.614;23.164;2022-07-15T09:20:56;1999.90;;;999.90;;
19762;SDS011;10040;42.614;23.164;2022-07-15T09:23:24;1999.90;;;999.90;;
19762;SDS011;10040;42.614;23.164;2022-07-15T09:25:57;1999.90;;;999.90;;
19762;SDS011;10040;42.614;23.164;2022-07-15T09:28:40;1999.90;;;999.90;;
19762;SDS011;10040;42.614;23.164;2022-07-15T09:31:10;1999.90;;;999.90;;
19762;SDS011;10040;42.614;23.164;2022-07-15T09:33:58;1999.90;;;999.90;;
19762;SDS011;10040;42.614;23.164;2022-07-15T09:36:28;1999.90;;;999.90;;
19762;SDS011;10040;42.614;23.164;2022-07-15T09:38:58;1999.90;;;999.90;;
19762;SDS011;10040;42.614;23.164;2022-07-15T09:41:31;1999.90;;;999.90;;
19762;SDS011;10040;42.614;23.164;2022-07-15T09:44:01;1999.90;;;999.90;;
19762;SDS011;10040;42.614;23.164;2022-07-15T09:46:39;1999.90;;;999.90;;
19762;SDS011;10040;42.614;23.164;2022-07-15T09:49:08;151.05;;;70.20;;
19762;SDS011;10040;42.614;23.164;2022-07-15T09:51:46;5.97;;;5.32;;
19762;SDS011;10040;42.614;23.164;2022-07-15T09:54:15;30.00;;;12.88;;
19762;SDS011;10040;42.614;23.164;2022-07-15T09:56:43;10.07;;;6.25;;
19762;SDS011;10040;42.614;23.164;2022-07-15T09:59:13;8.68;;;7.80;;
19762;SDS011;10040;42.614;23.164;2022-07-15T10:01:40;13.77;;;6.80;;
19762;SDS011;10040;42.614;23.164;2022-07-15T10:04:09;10.43;;;9.32;;
19762;SDS011;10040;42.614;23.164;2022-07-15T10:06:37;11.65;;;8.60;;
19762;SDS011;10040;42.614;23.164;2022-07-15T10:09:06;11.93;;;10.35;;
19762;SDS011;10040;42.614;23.164;2022-07-15T10:11:35;15.82;;;14.20;;
19762;SDS011;10040;42.614;23.164;2022-07-15T10:14:24;13.48;;;12.27;;
19762;SDS011;10040;42.614;23.164;2022-07-15T10:20:10;1999.90;;;999.90;;
19762;SDS011;10040;42.614;23.164;2022-07-15T10:23:02;1999.90;;;999.90;;
19762;SDS011;10040;42.614;23.164;2022-07-15T10:28:33;1999.90;;;999.90;;
19762;SDS011;10040;42.614;23.164;2022-07-15T10:31:18;39.97;;;24.67;;
19762;SDS011;10040;42.614;23.164;2022-07-15T10:36:55;12.45;;;9.70;;
19762;SDS011;10040;42.614;23.164;2022-07-15T10:39:25;14.25;;;12.20;;
19762;SDS011;10040;42.614;23.164;2022-07-15T10:41:54;15.02;;;10.13;;
19762;SDS011;10040;42.614;23.164;2022-07-15T10:44:23;12.30;;;8.85;;
19762;SDS011;10040;42.614;23.164;2022-07-15T10:49:46;11.07;;;10.10;;
19762;SDS011;10040;42.614;23.164;2022-07-15T10:52:15;10.23;;;8.50;;
19762;SDS011;10040;42.614;23.164;2022-07-15T10:54:44;10.80;;;9.05;;
19762;SDS011;10040;42.614;23.164;2022-07-15T10:57:13;15.80;;;14.35;;
19762;SDS011;10040;42.614;23.164;2022-07-15T10:59:47;17.33;;;10.40;;
19762;SDS011;10040;42.614;23.164;2022-07-15T11:02:24;12.55;;;8.23;;
19762;SDS011;10040;42.614;23.164;2022-07-15T11:04:52;17.55;;;7.03;;
19762;SDS011;10040;42.614;23.164;2022-07-15T11:07:46;15.98;;;14.43;;
19762;SDS011;10040;42.614;23.164;2022-07-15T11:10:14;30.63;;;20.40;;
19762;SDS011;10040;42.614;23.164;2022-07-15T11:12:57;594.97;;;318.00;;
19762;SDS011;10040;42.614;23.164;2022-07-15T11:15:28;1999.90;;;999.90;;
19762;SDS011;10040;42.614;23.164;2022-07-15T11:17:58;1999.90;;;999.90;;
19762;SDS011;10040;42.614;23.164;2022-07-15T11:20:28;1999.90;;;999.90;;
19762;SDS011;10040;42.614;23.164;2022-07-15T11:22:58;1999.90;;;999.90;;
19762;SDS011;10040;42.614;23.164;2022-07-15T11:25:27;1999.90;;;999.90;;
19762;SDS011;10040;42.614;23.164;2022-07-15T11:28:01;1999.90;;;999.90;;
19762;SDS011;10040;42.614;23.164;2022-07-15T11:30:35;605.92;;;315.13;;
19762;SDS011;10040;42.614;23.164;2022-07-15T11:33:06;119.75;;;112.85;;
19762;SDS011;10040;42.614;23.164;2022-07-15T11:35:46;1999.90;;;999.90;;
19762;SDS011;10040;42.614;23.164;2022-07-15T11:38:15;1999.90;;;999.90;;
19762;SDS011;10040;42.614;23.164;2022-07-15T11:40:44;39.33;;;36.28;;
19762;SDS011;10040;42.614;23.164;2022-07-15T11:43:30;1999.90;;;999.90;;
19762;SDS011;10040;42.614;23.164;2022-07-15T11:46:15;107.25;;;58.35;;
19762;SDS011;10040;42.614;23.164;2022-07-15T11:48:44;3.20;;;2.10;;
19762;SDS011;10040;42.614;23.164;2022-07-15T11:51:12;5.32;;;3.15;;
19762;SDS011;10040;42.614;23.164;2022-07-15T11:53:40;411.95;;;95.72;;
19762;SDS011;10040;42.614;23.164;2022-07-15T11:56:10;5.15;;;1.48;;
19762;SDS011;10040;42.614;23.164;2022-07-15T11:58:39;1.60;;;1.20;;
19762;SDS011;10040;42.614;23.164;2022-07-15T12:01:09;3.90;;;1.35;;
19762;SDS011;10040;42.614;23.164;2022-07-15T12:03:39;4.07;;;1.50;;
19762;SDS011;10040;42.614;23.164;2022-07-15T12:06:12;1.38;;;1.27;;
19762;SDS011;10040;42.614;23.164;2022-07-15T12:08:43;2.05;;;1.40;;
19762;SDS011;10040;42.614;23.164;2022-07-15T12:11:13;2.90;;;1.48;;
19762;SDS011;10040;42.614;23.164;2022-07-15T12:13:44;1.98;;;1.25;;
19762;SDS011;10040;42.614;23.164;2022-07-15T12:16:14;4.97;;;1.50;;
19762;SDS011;10040;42.614;23.164;2022-07-15T12:18:46;3.63;;;1.60;;
19762;SDS011;10040;42.614;23.164;2022-07-15T12:21:15;5.57;;;1.80;;
19762;SDS011;10040;42.614;23.164;2022-07-15T12:26:55;4.90;;;1.80;;
19762;SDS011;10040;42.614;23.164;2022-07-15T12:29:25;2.75;;;1.60;;
19762;SDS011;10040;42.614;23.164;2022-07-15T12:31:54;3.92;;;1.70;;
19762;SDS011;10040;42.614;23.164;2022-07-15T12:37:18;5.10;;;1.73;;
19762;SDS011;10040;42.614;23.164;2022-07-15T12:39:58;4.85;;;1.40;;
19762;SDS011;10040;42.614;23.164;2022-07-15T12:42:29;2.65;;;1.45;;
19762;SDS011;10040;42.614;23.164;2022-07-15T12:45:10;4.03;;;1.60;;
19762;SDS011;10040;42.614;23.164;2022-07-15T12:50:25;2.22;;;1.40;;
19762;SDS011;10040;42.614;23.164;2022-07-15T12:52:55;7.40;;;1.77;;
19762;SDS011;10040;42.614;23.164;2022-07-15T12:55:23;4.28;;;1.60;;
19762;SDS011;10040;42.614;23.164;2022-07-15T12:58:01;5.10;;;1.35;;
19762;SDS011;10040;42.614;23.164;2022-07-15T13:00:30;7.57;;;2.20;;
19762;SDS011;10040;42.614;23.164;2022-07-15T13:03:02;2.25;;;1.65;;
19762;SDS011;10040;42.614;23.164;2022-07-15T13:05:31;4.95;;;1.50;;
19762;SDS011;10040;42.614;23.164;2022-07-15T13:08:04;6.03;;;1.73;;
19762;SDS011;10040;42.614;23.164;2022-07-15T13:10:32;3.38;;;1.88;;
19762;SDS011;10040;42.614;23.164;2022-07-15T13:13:01;7.32;;;1.88;;
19762;SDS011;10040;42.614;23.164;2022-07-15T13:15:29;6.97;;;1.70;;
19762;SDS011;10040;42.614;23.164;2022-07-15T13:17:56;4.15;;;1.60;;
19762;SDS011;10040;42.614;23.164;2022-07-15T13:20:24;2.50;;;1.92;;
19762;SDS011;10040;42.614;23.164;2022-07-15T13:22:52;5.35;;;1.70;;
19762;SDS011;10040;42.614;23.164;2022-07-15T13:25:21;4.97;;;1.58;;
19762;SDS011;10040;42.614;23.164;2022-07-15T13:27:49;4.68;;;1.50;;
19762;SDS011;10040;42.614;23.164;2022-07-15T13:30:17;4.18;;;1.45;;
19762;SDS011;10040;42.614;23.164;2022-07-15T13:32:45;5.45;;;1.90;;
19762;SDS011;10040;42.614;23.164;2022-07-15T13:35:13;3.55;;;1.77;;
19762;SDS011;10040;42.614;23.164;2022-07-15T13:37:41;4.55;;;1.85;;
19762;SDS011;10040;42.614;23.164;2022-07-15T13:40:10;4.60;;;1.70;;
19762;SDS011;10040;42.614;23.164;2022-07-15T13:42:41;5.93;;;1.90;;
19762;SDS011;10040;42.614;23.164;2022-07-15T13:45:10;5.82;;;1.83;;
19762;SDS011;10040;42.614;23.164;2022-07-15T13:47:38;2.85;;;1.98;;
19762;SDS011;10040;42.614;23.164;2022-07-15T13:50:06;6.47;;;1.67;;
19762;SDS011;10040;42.614;23.164;2022-07-15T13:52:53;5.07;;;1.48;;
19762;SDS011;10040;42.614;23.164;2022-07-15T13:55:22;3.42;;;1.80;;
19762;SDS011;10040;42.614;23.164;2022-07-15T13:57:51;8.57;;;1.80;;
19762;SDS011;10040;42.614;23.164;2022-07-15T14:00:20;6.47;;;1.65;;
19762;SDS011;10040;42.614;23.164;2022-07-15T14:02:50;5.25;;;1.85;;
19762;SDS011;10040;42.614;23.164;2022-07-15T14:05:18;3.55;;;1.55;;
19762;SDS011;10040;42.614;23.164;2022-07-15T14:07:46;6.10;;;1.80;;
19762;SDS011;10040;42.614;23.164;2022-07-15T14:10:14;5.55;;;1.90;;
19762;SDS011;10040;42.614;23.164;2022-07-15T14:12:42;4.50;;;1.60;;
19762;SDS011;10040;42.614;23.164;2022-07-15T14:15:11;6.53;;;2.10;;
19762;SDS011;10040;42.614;23.164;2022-07-15T14:17:39;3.88;;;1.80;;
19762;SDS011;10040;42.614;23.164;2022-07-15T14:20:07;5.07;;;2.10;;
19762;SDS011;10040;42.614;23.164;2022-07-15T14:22:35;2.75;;;1.73;;
19762;SDS011;10040;42.614;23.164;2022-07-15T14:25:02;3.38;;;1.60;;
19762;SDS011;10040;42.614;23.164;2022-07-15T14:27:33;4.90;;;2.00;;
19762;SDS011;10040;42.614;23.164;2022-07-15T14:30:01;1.88;;;1.60;;
19762;SDS011;10040;42.614;23.164;2022-07-15T14:32:30;4.40;;;1.88;;
19762;SDS011;10040;42.614;23.164;2022-07-15T14:34:59;3.58;;;1.80;;
19762;SDS011;10040;42.614;23.164;2022-07-15T14:37:27;2.53;;;1.77;;